createdAt,value
2017-11-29T22:54:38.447Z,96836.56
2017-11-29T22:55:41.878Z,96838.09
2017-11-29T22:56:44.875Z,96838.50
2017-11-29T22:57:47.829Z,96831.97
2017-11-29T22:58:50.912Z,96833.89
2017-11-29T22:59:54.399Z,96837.34
2017-11-29T23:00:57.710Z,96831.56
2017-11-29T23:02:00.962Z,96830.63
2017-11-29T23:03:03.916Z,96830.25
2017-11-29T23:04:06.869Z,96826.60
2017-11-29T23:05:09.847Z,96828.70
2017-11-29T23:06:13.229Z,96831.05
2017-11-29T23:07:16.159Z,96831.52
2017-11-29T23:08:19.186Z,96827.17
2017-11-29T23:09:22.162Z,96826.98
2017-11-29T23:10:25.102Z,96823.14
2017-11-29T23:11:28.083Z,96826.39
2017-11-29T23:12:31.334Z,96827.94
2017-11-29T23:13:34.348Z,96828.13
2017-11-29T23:14:37.308Z,96825.45
2017-11-29T23:15:40.321Z,96831.41
2017-11-29T23:16:43.288Z,96833.50
2017-11-29T23:17:46.270Z,96825.81
2017-11-29T23:18:49.634Z,96825.05
2017-11-29T23:19:52.571Z,96828.50
2017-11-29T23:20:55.517Z,96826.98
2017-11-29T23:21:58.600Z,96830.23
2017-11-29T23:23:01.603Z,96829.87
2017-11-29T23:24:04.571Z,96824.67
2017-11-29T23:25:07.846Z,96828.13
2017-11-29T23:26:10.999Z,96824.47
2017-11-29T23:27:13.939Z,96822.95
2017-11-29T23:28:16.911Z,96820.25
2017-11-29T23:29:19.896Z,96820.23
2017-11-29T23:30:22.833Z,96823.52
2017-11-29T23:31:26.132Z,96819.50
2017-11-29T23:32:28.957Z,96820.83
2017-11-29T23:33:31.825Z,96817.19
2017-11-29T23:34:35.253Z,96816.23
2017-11-29T23:35:38.085Z,96815.64
2017-11-29T23:36:40.927Z,96821.59
2017-11-29T23:37:44.273Z,96815.08
2017-11-29T23:38:47.192Z,96817.76
2017-11-29T23:39:50.137Z,96812.58
2017-11-29T23:40:53.058Z,96813.53
2017-11-29T23:41:56.073Z,96816.81
2017-11-29T23:42:59.035Z,96815.66
2017-11-29T23:44:02.417Z,96814.29
2017-11-29T23:45:05.424Z,96814.30
2017-11-29T23:46:08.387Z,96813.13
2017-11-29T23:47:11.369Z,96816.41
2017-11-29T23:48:14.379Z,96818.50
2017-11-29T23:49:18.234Z,96813.13
2017-11-29T23:50:21.548Z,96813.71
2017-11-29T23:51:24.530Z,96811.59
2017-11-29T23:52:27.507Z,96809.50
2017-11-29T23:53:30.511Z,96814.87
2017-11-29T23:54:33.439Z,96810.81
2017-11-29T23:55:36.379Z,96812.76
2017-11-29T23:56:39.836Z,96810.80
2017-11-29T23:57:42.779Z,96809.09
2017-11-29T23:58:45.734Z,96807.71
2017-11-29T23:59:48.669Z,96808.14
